sensor_id;sensor_type;location;lat;lon;timestamp;temperature;humidity
27072;DHT22;14613;46.308;25.288;2023-09-30T00:01:42;12.70;71.00
27072;DHT22;14613;46.308;25.288;2023-09-30T00:04:09;12.80;71.00
27072;DHT22;14613;46.308;25.288;2023-09-30T00:06:35;12.80;71.00
27072;DHT22;14613;46.308;25.288;2023-09-30T00:09:01;12.80;70.90
27072;DHT22;14613;46.308;25.288;2023-09-30T00:11:27;12.80;70.90
27072;DHT22;14613;46.308;25.288;2023-09-30T00:13:53;12.80;71.00
27072;DHT22;14613;46.308;25.288;2023-09-30T00:16:19;12.80;70.90
27072;DHT22;14613;46.308;25.288;2023-09-30T00:18:45;12.70;71.70
27072;DHT22;14613;46.308;25.288;2023-09-30T00:21:11;12.70;70.90
27072;DHT22;14613;46.308;25.288;2023-09-30T00:23:37;12.70;70.90
27072;DHT22;14613;46.308;25.288;2023-09-30T00:26:03;12.70;71.00
27072;DHT22;14613;46.308;25.288;2023-09-30T00:28:30;12.60;71.10
27072;DHT22;14613;46.308;25.288;2023-09-30T00:30:56;12.60;71.20
27072;DHT22;14613;46.308;25.288;2023-09-30T00:33:22;12.60;71.20
27072;DHT22;14613;46.308;25.288;2023-09-30T00:35:48;12.60;71.30
27072;DHT22;14613;46.308;25.288;2023-09-30T00:38:14;12.60;71.30
27072;DHT22;14613;46.308;25.288;2023-09-30T00:40:49;12.60;71.40
27072;DHT22;14613;46.308;25.288;2023-09-30T00:43:19;12.60;71.40
27072;DHT22;14613;46.308;25.288;2023-09-30T00:45:45;12.60;71.30
27072;DHT22;14613;46.308;25.288;2023-09-30T00:48:12;12.60;71.40
27072;DHT22;14613;46.308;25.288;2023-09-30T00:50:37;12.60;71.40
27072;DHT22;14613;46.308;25.288;2023-09-30T00:53:03;12.60;71.40
27072;DHT22;14613;46.308;25.288;2023-09-30T00:55:29;12.50;71.30
27072;DHT22;14613;46.308;25.288;2023-09-30T00:57:56;12.50;71.40
27072;DHT22;14613;46.308;25.288;2023-09-30T01:00:22;12.50;71.40
27072;DHT22;14613;46.308;25.288;2023-09-30T01:02:50;12.50;71.40
27072;DHT22;14613;46.308;25.288;2023-09-30T01:05:19;12.50;71.50
27072;DHT22;14613;46.308;25.288;2023-09-30T01:07:44;12.40;71.50
27072;DHT22;14613;46.308;25.288;2023-09-30T01:10:10;12.40;71.50
27072;DHT22;14613;46.308;25.288;2023-09-30T01:12:36;12.40;71.60
27072;DHT22;14613;46.308;25.288;2023-09-30T01:15:03;12.30;71.60
27072;DHT22;14613;46.308;25.288;2023-09-30T01:17:31;12.30;71.70
27072;DHT22;14613;46.308;25.288;2023-09-30T01:19:57;12.30;71.80
27072;DHT22;14613;46.308;25.288;2023-09-30T01:22:30;12.20;71.80
27072;DHT22;14613;46.308;25.288;2023-09-30T01:24:56;12.20;71.90
27072;DHT22;14613;46.308;25.288;2023-09-30T01:27:21;12.10;71.90
27072;DHT22;14613;46.308;25.288;2023-09-30T01:29:47;12.10;71.90
27072;DHT22;14613;46.308;25.288;2023-09-30T01:32:14;12.10;72.00
27072;DHT22;14613;46.308;25.288;2023-09-30T01:34:40;12.10;72.10
27072;DHT22;14613;46.308;25.288;2023-09-30T01:37:05;12.00;72.10
27072;DHT22;14613;46.308;25.288;2023-09-30T01:39:31;11.90;72.10
27072;DHT22;14613;46.308;25.288;2023-09-30T01:41:58;12.00;72.30
27072;DHT22;14613;46.308;25.288;2023-09-30T01:44:25;11.90;72.30
27072;DHT22;14613;46.308;25.288;2023-09-30T01:46:51;11.90;72.50
27072;DHT22;14613;46.308;25.288;2023-09-30T01:49:17;11.80;72.50
27072;DHT22;14613;46.308;25.288;2023-09-30T01:51:45;11.80;72.60
27072;DHT22;14613;46.308;25.288;2023-09-30T01:54:11;11.70;72.60
27072;DHT22;14613;46.308;25.288;2023-09-30T01:56:37;11.70;72.60
27072;DHT22;14613;46.308;25.288;2023-09-30T01:59:03;11.70;72.80
27072;DHT22;14613;46.308;25.288;2023-09-30T02:01:28;11.70;72.80
27072;DHT22;14613;46.308;25.288;2023-09-30T02:03:54;11.70;72.80
27072;DHT22;14613;46.308;25.288;2023-09-30T02:06:20;11.70;72.90
27072;DHT22;14613;46.308;25.288;2023-09-30T02:08:45;11.70;73.00
27072;DHT22;14613;46.308;25.288;2023-09-30T02:11:11;11.70;73.10
27072;DHT22;14613;46.308;25.288;2023-09-30T02:13:38;11.60;73.10
27072;DHT22;14613;46.308;25.288;2023-09-30T02:16:05;11.60;73.20
27072;DHT22;14613;46.308;25.288;2023-09-30T02:18:31;11.60;73.40
27072;DHT22;14613;46.308;25.288;2023-09-30T02:20:59;11.50;73.50
27072;DHT22;14613;46.308;25.288;2023-09-30T02:23:25;11.50;73.70
27072;DHT22;14613;46.308;25.288;2023-09-30T02:25:51;11.40;73.80
27072;DHT22;14613;46.308;25.288;2023-09-30T02:31:33;11.40;74.00
27072;DHT22;14613;46.308;25.288;2023-09-30T02:34:08;11.40;73.90
27072;DHT22;14613;46.308;25.288;2023-09-30T02:36:34;11.40;73.90
27072;DHT22;14613;46.308;25.288;2023-09-30T02:39:09;11.40;73.90
27072;DHT22;14613;46.308;25.288;2023-09-30T02:41:35;11.40;73.90
27072;DHT22;14613;46.308;25.288;2023-09-30T02:44:01;11.40;73.90
27072;DHT22;14613;46.308;25.288;2023-09-30T02:46:27;11.40;73.90
27072;DHT22;14613;46.308;25.288;2023-09-30T02:48:55;11.40;73.80
27072;DHT22;14613;46.308;25.288;2023-09-30T02:51:21;11.40;73.80
27072;DHT22;14613;46.308;25.288;2023-09-30T02:53:46;11.40;73.80
27072;DHT22;14613;46.308;25.288;2023-09-30T02:56:14;11.40;73.80
27072;DHT22;14613;46.308;25.288;2023-09-30T02:58:39;11.30;73.80
27072;DHT22;14613;46.308;25.288;2023-09-30T03:01:08;11.30;73.80
27072;DHT22;14613;46.308;25.288;2023-09-30T03:03:35;11.30;73.80
27072;DHT22;14613;46.308;25.288;2023-09-30T03:06:01;11.30;73.90
27072;DHT22;14613;46.308;25.288;2023-09-30T03:08:27;11.30;73.90
27072;DHT22;14613;46.308;25.288;2023-09-30T03:10:52;11.20;73.80
27072;DHT22;14613;46.308;25.288;2023-09-30T03:13:18;11.30;74.00
27072;DHT22;14613;46.308;25.288;2023-09-30T03:15:47;11.20;74.00
27072;DHT22;14613;46.308;25.288;2023-09-30T03:18:16;11.20;74.00
27072;DHT22;14613;46.308;25.288;2023-09-30T03:20:43;11.20;74.20
27072;DHT22;14613;46.308;25.288;2023-09-30T03:23:09;11.10;74.30
27072;DHT22;14613;46.308;25.288;2023-09-30T03:25:35;11.10;74.40
27072;DHT22;14613;46.308;25.288;2023-09-30T03:28:02;11.00;74.40
27072;DHT22;14613;46.308;25.288;2023-09-30T03:30:27;11.00;74.60
27072;DHT22;14613;46.308;25.288;2023-09-30T03:32:55;11.00;74.70
27072;DHT22;14613;46.308;25.288;2023-09-30T03:35:20;11.00;74.80
27072;DHT22;14613;46.308;25.288;2023-09-30T03:37:47;10.90;74.80
27072;DHT22;14613;46.308;25.288;2023-09-30T03:40:13;10.90;74.90
27072;DHT22;14613;46.308;25.288;2023-09-30T03:42:43;10.90;74.90
27072;DHT22;14613;46.308;25.288;2023-09-30T03:45:10;10.90;75.00
27072;DHT22;14613;46.308;25.288;2023-09-30T03:47:37;10.90;75.00
27072;DHT22;14613;46.308;25.288;2023-09-30T03:50:04;10.90;75.00
27072;DHT22;14613;46.308;25.288;2023-09-30T03:52:34;10.90;75.00
27072;DHT22;14613;46.308;25.288;2023-09-30T03:55:00;10.90;75.00
27072;DHT22;14613;46.308;25.288;2023-09-30T03:57:33;10.90;75.10
27072;DHT22;14613;46.308;25.288;2023-09-30T04:00:00;10.90;75.20
27072;DHT22;14613;46.308;25.288;2023-09-30T04:02:26;10.90;75.20
27072;DHT22;14613;46.308;25.288;2023-09-30T04:04:53;10.80;75.00
27072;DHT22;14613;46.308;25.288;2023-09-30T04:07:21;10.90;75.00
27072;DHT22;14613;46.308;25.288;2023-09-30T04:09:48;10.80;75.00
27072;DHT22;14613;46.308;25.288;2023-09-30T04:12:13;10.90;75.00
27072;DHT22;14613;46.308;25.288;2023-09-30T04:14:39;10.90;75.00
27072;DHT22;14613;46.308;25.288;2023-09-30T04:17:05;10.80;74.90
27072;DHT22;14613;46.308;25.288;2023-09-30T04:19:31;10.80;74.90
27072;DHT22;14613;46.308;25.288;2023-09-30T04:21:56;10.80;74.80
27072;DHT22;14613;46.308;25.288;2023-09-30T04:24:22;10.80;74.90
27072;DHT22;14613;46.308;25.288;2023-09-30T04:26:48;10.80;74.80
27072;DHT22;14613;46.308;25.288;2023-09-30T04:29:16;10.80;74.90
27072;DHT22;14613;46.308;25.288;2023-09-30T04:31:42;10.80;74.90
27072;DHT22;14613;46.308;25.288;2023-09-30T04:34:07;10.80;75.00
27072;DHT22;14613;46.308;25.288;2023-09-30T04:36:44;10.80;75.00
27072;DHT22;14613;46.308;25.288;2023-09-30T04:39:10;10.80;75.00
27072;DHT22;14613;46.308;25.288;2023-09-30T04:41:38;10.80;75.00
27072;DHT22;14613;46.308;25.288;2023-09-30T04:44:07;10.80;75.00
27072;DHT22;14613;46.308;25.288;2023-09-30T04:46:36;10.90;75.10
27072;DHT22;14613;46.308;25.288;2023-09-30T04:49:07;10.90;75.10
27072;DHT22;14613;46.308;25.288;2023-09-30T04:51:33;10.90;75.10
27072;DHT22;14613;46.308;25.288;2023-09-30T04:53:59;11.00;75.20
27072;DHT22;14613;46.308;25.288;2023-09-30T04:56:25;11.00;75.20
27072;DHT22;14613;46.308;25.288;2023-09-30T04:58:51;11.10;75.30
27072;DHT22;14613;46.308;25.288;2023-09-30T05:01:17;11.20;75.40
27072;DHT22;14613;46.308;25.288;2023-09-30T05:03:44;11.40;75.50
27072;DHT22;14613;46.308;25.288;2023-09-30T05:06:13;11.60;75.50
27072;DHT22;14613;46.308;25.288;2023-09-30T05:08:39;11.80;75.50
27072;DHT22;14613;46.308;25.288;2023-09-30T05:11:05;12.00;75.50
27072;DHT22;14613;46.308;25.288;2023-09-30T05:13:31;12.20;75.40
27072;DHT22;14613;46.308;25.288;2023-09-30T05:15:56;12.40;75.40
27072;DHT22;14613;46.308;25.288;2023-09-30T05:18:22;12.70;75.30
27072;DHT22;14613;46.308;25.288;2023-09-30T05:20:49;12.90;75.10
27072;DHT22;14613;46.308;25.288;2023-09-30T05:23:15;13.20;75.00
27072;DHT22;14613;46.308;25.288;2023-09-30T05:25:41;13.50;74.80
27072;DHT22;14613;46.308;25.288;2023-09-30T05:28:08;13.80;74.60
27072;DHT22;14613;46.308;25.288;2023-09-30T05:30:35;14.10;74.40
27072;DHT22;14613;46.308;25.288;2023-09-30T05:33:00;14.40;74.10
27072;DHT22;14613;46.308;25.288;2023-09-30T05:35:26;14.70;73.80
27072;DHT22;14613;46.308;25.288;2023-09-30T05:37:53;15.00;73.60
27072;DHT22;14613;46.308;25.288;2023-09-30T05:40:20;15.30;73.40
27072;DHT22;14613;46.308;25.288;2023-09-30T05:42:55;15.60;73.10
27072;DHT22;14613;46.308;25.288;2023-09-30T05:45:23;15.90;72.80
27072;DHT22;14613;46.308;25.288;2023-09-30T05:47:49;16.30;72.60
27072;DHT22;14613;46.308;25.288;2023-09-30T05:50:18;16.60;72.20
27072;DHT22;14613;46.308;25.288;2023-09-30T05:52:49;16.90;71.80
27072;DHT22;14613;46.308;25.288;2023-09-30T05:55:19;17.20;71.30
27072;DHT22;14613;46.308;25.288;2023-09-30T05:57:47;17.40;70.90
27072;DHT22;14613;46.308;25.288;2023-09-30T06:00:13;17.70;70.60
27072;DHT22;14613;46.308;25.288;2023-09-30T06:02:49;18.00;70.30
27072;DHT22;14613;46.308;25.288;2023-09-30T06:05:17;18.30;69.70
27072;DHT22;14613;46.308;25.288;2023-09-30T06:07:45;18.50;69.30
27072;DHT22;14613;46.308;25.288;2023-09-30T06:10:11;18.80;69.00
27072;DHT22;14613;46.308;25.288;2023-09-30T06:12:38;19.00;68.70
27072;DHT22;14613;46.308;25.288;2023-09-30T06:15:04;19.30;68.30
27072;DHT22;14613;46.308;25.288;2023-09-30T06:17:31;19.50;67.80
27072;DHT22;14613;46.308;25.288;2023-09-30T06:19:58;19.70;67.50
27072;DHT22;14613;46.308;25.288;2023-09-30T06:22:32;19.90;67.10
27072;DHT22;14613;46.308;25.288;2023-09-30T06:24:58;20.10;66.60
27072;DHT22;14613;46.308;25.288;2023-09-30T06:27:24;20.30;66.00
27072;DHT22;14613;46.308;25.288;2023-09-30T06:29:49;20.40;65.60
27072;DHT22;14613;46.308;25.288;2023-09-30T06:32:15;20.50;65.20
27072;DHT22;14613;46.308;25.288;2023-09-30T06:34:41;20.60;65.00
27072;DHT22;14613;46.308;25.288;2023-09-30T06:37:07;20.70;64.60
27072;DHT22;14613;46.308;25.288;2023-09-30T06:39:34;20.70;64.10
27072;DHT22;14613;46.308;25.288;2023-09-30T06:42:00;20.80;64.00
27072;DHT22;14613;46.308;25.288;2023-09-30T06:44:25;21.00;64.00
27072;DHT22;14613;46.308;25.288;2023-09-30T06:46:52;21.20;63.70
27072;DHT22;14613;46.308;25.288;2023-09-30T06:49:20;21.40;63.40
27072;DHT22;14613;46.308;25.288;2023-09-30T06:51:46;21.60;63.10
27072;DHT22;14613;46.308;25.288;2023-09-30T06:54:13;21.70;62.60
27072;DHT22;14613;46.308;25.288;2023-09-30T06:56:39;21.90;62.20
27072;DHT22;14613;46.308;25.288;2023-09-30T06:59:04;22.10;62.00
27072;DHT22;14613;46.308;25.288;2023-09-30T07:01:31;22.30;61.60
27072;DHT22;14613;46.308;25.288;2023-09-30T07:03:57;22.40;61.20
27072;DHT22;14613;46.308;25.288;2023-09-30T07:06:24;22.50;60.90
27072;DHT22;14613;46.308;25.288;2023-09-30T07:08:50;22.70;60.70
27072;DHT22;14613;46.308;25.288;2023-09-30T07:11:16;22.80;60.40
27072;DHT22;14613;46.308;25.288;2023-09-30T07:13:42;23.00;60.20
27072;DHT22;14613;46.308;25.288;2023-09-30T07:16:07;23.10;59.90
27072;DHT22;14613;46.308;25.288;2023-09-30T07:18:33;23.20;59.70
27072;DHT22;14613;46.308;25.288;2023-09-30T07:20:59;23.40;59.40
27072;DHT22;14613;46.308;25.288;2023-09-30T07:23:25;23.50;59.30
27072;DHT22;14613;46.308;25.288;2023-09-30T07:25:50;23.60;59.10
27072;DHT22;14613;46.308;25.288;2023-09-30T07:28:16;23.70;58.90
27072;DHT22;14613;46.308;25.288;2023-09-30T07:30:43;23.90;58.80
27072;DHT22;14613;46.308;25.288;2023-09-30T07:33:09;24.10;58.60
27072;DHT22;14613;46.308;25.288;2023-09-30T07:35:34;24.20;58.40
27072;DHT22;14613;46.308;25.288;2023-09-30T07:38:01;24.40;58.20
27072;DHT22;14613;46.308;25.288;2023-09-30T07:40:26;24.50;57.90
27072;DHT22;14613;46.308;25.288;2023-09-30T07:42:53;24.60;57.70
27072;DHT22;14613;46.308;25.288;2023-09-30T07:45:19;24.70;57.40
27072;DHT22;14613;46.308;25.288;2023-09-30T07:47:46;24.80;57.00
27072;DHT22;14613;46.308;25.288;2023-09-30T07:50:12;24.80;56.80
27072;DHT22;14613;46.308;25.288;2023-09-30T07:52:39;24.90;56.70
27072;DHT22;14613;46.308;25.288;2023-09-30T07:55:05;25.10;56.60
27072;DHT22;14613;46.308;25.288;2023-09-30T07:57:31;25.20;56.50
27072;DHT22;14613;46.308;25.288;2023-09-30T07:59:57;25.30;56.20
27072;DHT22;14613;46.308;25.288;2023-09-30T08:02:23;25.40;56.00
27072;DHT22;14613;46.308;25.288;2023-09-30T08:04:49;25.50;55.90
27072;DHT22;14613;46.308;25.288;2023-09-30T08:07:15;25.70;55.70
27072;DHT22;14613;46.308;25.288;2023-09-30T08:09:41;25.80;55.60
27072;DHT22;14613;46.308;25.288;2023-09-30T08:12:07;25.80;55.40
27072;DHT22;14613;46.308;25.288;2023-09-30T08:14:32;25.90;55.40
27072;DHT22;14613;46.308;25.288;2023-09-30T08:16:58;26.10;55.40
27072;DHT22;14613;46.308;25.288;2023-09-30T08:19:24;26.20;55.20
27072;DHT22;14613;46.308;25.288;2023-09-30T08:21:50;26.30;55.00
27072;DHT22;14613;46.308;25.288;2023-09-30T08:24:16;26.40;54.80
27072;DHT22;14613;46.308;25.288;2023-09-30T08:26:41;26.40;54.50
27072;DHT22;14613;46.308;25.288;2023-09-30T08:29:07;26.50;54.50
27072;DHT22;14613;46.308;25.288;2023-09-30T08:31:33;26.60;54.20
27072;DHT22;14613;46.308;25.288;2023-09-30T08:33:59;26.60;54.00
27072;DHT22;14613;46.308;25.288;2023-09-30T08:36:25;26.70;54.10
27072;DHT22;14613;46.308;25.288;2023-09-30T08:38:50;26.80;54.00
27072;DHT22;14613;46.308;25.288;2023-09-30T08:41:30;26.90;53.80
27072;DHT22;14613;46.308;25.288;2023-09-30T08:43:56;27.10;53.60
27072;DHT22;14613;46.308;25.288;2023-09-30T08:46:24;27.20;54.20
27072;DHT22;14613;46.308;25.288;2023-09-30T08:48:50;27.40;53.20
27072;DHT22;14613;46.308;25.288;2023-09-30T08:51:16;27.50;52.90
27072;DHT22;14613;46.308;25.288;2023-09-30T08:53:42;27.50;52.70
27072;DHT22;14613;46.308;25.288;2023-09-30T08:56:10;27.60;52.60
27072;DHT22;14613;46.308;25.288;2023-09-30T08:58:37;27.70;52.50
27072;DHT22;14613;46.308;25.288;2023-09-30T09:01:03;27.70;52.10
27072;DHT22;14613;46.308;25.288;2023-09-30T09:03:29;27.60;51.80
27072;DHT22;14613;46.308;25.288;2023-09-30T09:05:57;27.60;51.90
27072;DHT22;14613;46.308;25.288;2023-09-30T09:08:25;27.70;51.80
27072;DHT22;14613;46.308;25.288;2023-09-30T09:10:56;27.70;51.60
27072;DHT22;14613;46.308;25.288;2023-09-30T09:13:24;27.70;51.30
27072;DHT22;14613;46.308;25.288;2023-09-30T09:15:50;27.70;51.10
27072;DHT22;14613;46.308;25.288;2023-09-30T09:18:34;27.70;50.90
27072;DHT22;14613;46.308;25.288;2023-09-30T09:21:18;27.70;51.00
27072;DHT22;14613;46.308;25.288;2023-09-30T09:23:50;27.80;51.00
27072;DHT22;14613;46.308;25.288;2023-09-30T09:26:26;27.90;51.20
27072;DHT22;14613;46.308;25.288;2023-09-30T09:29:03;28.00;51.00
27072;DHT22;14613;46.308;25.288;2023-09-30T09:31:35;28.10;51.00
27072;DHT22;14613;46.308;25.288;2023-09-30T09:34:02;28.10;50.90
27072;DHT22;14613;46.308;25.288;2023-09-30T09:36:45;28.10;50.90
27072;DHT22;14613;46.308;25.288;2023-09-30T09:39:13;28.20;50.60
27072;DHT22;14613;46.308;25.288;2023-09-30T09:41:50;28.20;50.40
27072;DHT22;14613;46.308;25.288;2023-09-30T09:44:18;28.20;50.10
27072;DHT22;14613;46.308;25.288;2023-09-30T09:46:46;28.20;49.90
27072;DHT22;14613;46.308;25.288;2023-09-30T09:49:13;28.20;50.00
27072;DHT22;14613;46.308;25.288;2023-09-30T09:51:39;28.20;50.00
27072;DHT22;14613;46.308;25.288;2023-09-30T09:54:06;28.30;50.00
27072;DHT22;14613;46.308;25.288;2023-09-30T09:56:34;28.30;50.00
27072;DHT22;14613;46.308;25.288;2023-09-30T09:59:03;28.40;50.00
27072;DHT22;14613;46.308;25.288;2023-09-30T10:01:34;28.50;50.00
27072;DHT22;14613;46.308;25.288;2023-09-30T10:04:01;28.70;49.80
27072;DHT22;14613;46.308;25.288;2023-09-30T10:06:27;28.80;49.20
27072;DHT22;14613;46.308;25.288;2023-09-30T10:08:54;28.80;49.10
27072;DHT22;14613;46.308;25.288;2023-09-30T10:11:23;28.80;49.20
27072;DHT22;14613;46.308;25.288;2023-09-30T10:13:56;28.90;49.20
27072;DHT22;14613;46.308;25.288;2023-09-30T10:19:15;29.00;48.80
27072;DHT22;14613;46.308;25.288;2023-09-30T10:24:47;28.90;48.20
27072;DHT22;14613;46.308;25.288;2023-09-30T10:35:20;29.20;48.00
27072;DHT22;14613;46.308;25.288;2023-09-30T10:37:47;29.20;47.80
27072;DHT22;14613;46.308;25.288;2023-09-30T10:40:27;29.20;48.40
27072;DHT22;14613;46.308;25.288;2023-09-30T10:42:53;29.20;47.80
27072;DHT22;14613;46.308;25.288;2023-09-30T10:45:43;29.30;47.90
27072;DHT22;14613;46.308;25.288;2023-09-30T10:50:56;29.70;48.00
27072;DHT22;14613;46.308;25.288;2023-09-30T10:53:24;29.70;47.80
27072;DHT22;14613;46.308;25.288;2023-09-30T10:55:57;29.80;47.70
27072;DHT22;14613;46.308;25.288;2023-09-30T10:58:46;29.90;47.70
27072;DHT22;14613;46.308;25.288;2023-09-30T11:01:16;29.90;47.60
27072;DHT22;14613;46.308;25.288;2023-09-30T11:03:42;30.00;47.60
27072;DHT22;14613;46.308;25.288;2023-09-30T11:06:11;30.10;47.60
27072;DHT22;14613;46.308;25.288;2023-09-30T11:08:44;30.10;47.30
27072;DHT22;14613;46.308;25.288;2023-09-30T11:11:11;30.20;47.20
27072;DHT22;14613;46.308;25.288;2023-09-30T11:13:37;30.20;47.20
27072;DHT22;14613;46.308;25.288;2023-09-30T11:16:04;30.30;47.20
27072;DHT22;14613;46.308;25.288;2023-09-30T11:18:31;30.30;46.90
27072;DHT22;14613;46.308;25.288;2023-09-30T11:21:23;30.30;46.70
27072;DHT22;14613;46.308;25.288;2023-09-30T11:23:49;30.30;46.40
27072;DHT22;14613;46.308;25.288;2023-09-30T11:26:15;30.20;46.40
27072;DHT22;14613;46.308;25.288;2023-09-30T11:28:42;30.20;46.40
27072;DHT22;14613;46.308;25.288;2023-09-30T11:31:11;30.20;46.20
27072;DHT22;14613;46.308;25.288;2023-09-30T11:33:55;30.10;46.20
27072;DHT22;14613;46.308;25.288;2023-09-30T11:36:23;30.10;46.00
27072;DHT22;14613;46.308;25.288;2023-09-30T11:38:51;30.10;46.10
27072;DHT22;14613;46.308;25.288;2023-09-30T11:41:18;30.00;45.80
27072;DHT22;14613;46.308;25.288;2023-09-30T11:44:09;30.00;45.90
27072;DHT22;14613;46.308;25.288;2023-09-30T11:47:00;30.00;45.90
27072;DHT22;14613;46.308;25.288;2023-09-30T11:51:57;29.90;46.10
27072;DHT22;14613;46.308;25.288;2023-09-30T11:54:29;30.00;46.10
27072;DHT22;14613;46.308;25.288;2023-09-30T11:56:55;30.00;46.10
27072;DHT22;14613;46.308;25.288;2023-09-30T11:59:20;30.10;46.00
27072;DHT22;14613;46.308;25.288;2023-09-30T12:01:48;30.00;46.00
27072;DHT22;14613;46.308;25.288;2023-09-30T12:04:15;30.00;46.00
27072;DHT22;14613;46.308;25.288;2023-09-30T12:06:43;30.10;46.10
27072;DHT22;14613;46.308;25.288;2023-09-30T12:09:08;30.10;46.00
27072;DHT22;14613;46.308;25.288;2023-09-30T12:11:39;30.00;45.90
27072;DHT22;14613;46.308;25.288;2023-09-30T12:14:04;30.00;46.00
27072;DHT22;14613;46.308;25.288;2023-09-30T12:16:31;30.00;45.90
27072;DHT22;14613;46.308;25.288;2023-09-30T12:18:57;30.00;45.90
27072;DHT22;14613;46.308;25.288;2023-09-30T12:21:23;30.00;45.80
27072;DHT22;14613;46.308;25.288;2023-09-30T12:23:49;29.90;45.80
27072;DHT22;14613;46.308;25.288;2023-09-30T12:26:15;29.90;45.70
27072;DHT22;14613;46.308;25.288;2023-09-30T12:28:45;29.80;45.60
27072;DHT22;14613;46.308;25.288;2023-09-30T12:31:11;29.70;45.60
27072;DHT22;14613;46.308;25.288;2023-09-30T12:33:37;29.60;45.50
27072;DHT22;14613;46.308;25.288;2023-09-30T12:36:03;29.50;45.60
27072;DHT22;14613;46.308;25.288;2023-09-30T12:38:29;29.40;45.30
27072;DHT22;14613;46.308;25.288;2023-09-30T12:40:55;29.30;45.40
27072;DHT22;14613;46.308;25.288;2023-09-30T12:43:21;29.20;45.50
27072;DHT22;14613;46.308;25.288;2023-09-30T12:45:47;29.10;45.60
27072;DHT22;14613;46.308;25.288;2023-09-30T12:48:16;29.10;45.60
27072;DHT22;14613;46.308;25.288;2023-09-30T12:50:46;29.10;45.70
27072;DHT22;14613;46.308;25.288;2023-09-30T12:53:11;29.00;45.60
27072;DHT22;14613;46.308;25.288;2023-09-30T12:55:37;29.00;45.70
27072;DHT22;14613;46.308;25.288;2023-09-30T12:58:03;29.10;45.80
27072;DHT22;14613;46.308;25.288;2023-09-30T13:00:31;29.10;45.70
27072;DHT22;14613;46.308;25.288;2023-09-30T13:02:59;29.00;45.50
27072;DHT22;14613;46.308;25.288;2023-09-30T13:05:25;29.00;45.70
27072;DHT22;14613;46.308;25.288;2023-09-30T13:07:51;28.90;45.80
27072;DHT22;14613;46.308;25.288;2023-09-30T13:10:18;28.90;45.90
27072;DHT22;14613;46.308;25.288;2023-09-30T13:12:44;28.90;45.80
27072;DHT22;14613;46.308;25.288;2023-09-30T13:15:10;28.80;45.80
27072;DHT22;14613;46.308;25.288;2023-09-30T13:17:36;28.80;45.90
27072;DHT22;14613;46.308;25.288;2023-09-30T13:20:01;28.70;45.90
27072;DHT22;14613;46.308;25.288;2023-09-30T13:22:30;28.70;46.00
27072;DHT22;14613;46.308;25.288;2023-09-30T13:25:00;28.70;46.10
27072;DHT22;14613;46.308;25.288;2023-09-30T13:27:25;28.70;46.10
27072;DHT22;14613;46.308;25.288;2023-09-30T13:29:51;28.60;46.00
27072;DHT22;14613;46.308;25.288;2023-09-30T13:32:20;28.60;46.00
27072;DHT22;14613;46.308;25.288;2023-09-30T13:34:45;28.60;46.10
27072;DHT22;14613;46.308;25.288;2023-09-30T13:37:11;28.60;46.10
27072;DHT22;14613;46.308;25.288;2023-09-30T13:39:37;28.60;46.20
27072;DHT22;14613;46.308;25.288;2023-09-30T13:42:03;28.50;46.10
27072;DHT22;14613;46.308;25.288;2023-09-30T13:44:29;28.50;46.10
27072;DHT22;14613;46.308;25.288;2023-09-30T13:46:55;28.40;46.10
27072;DHT22;14613;46.308;25.288;2023-09-30T13:49:21;28.40;46.20
27072;DHT22;14613;46.308;25.288;2023-09-30T13:51:46;28.30;46.30
27072;DHT22;14613;46.308;25.288;2023-09-30T13:54:12;28.30;46.30
27072;DHT22;14613;46.308;25.288;2023-09-30T13:56:40;28.20;46.30
27072;DHT22;14613;46.308;25.288;2023-09-30T13:59:05;28.10;46.10
27072;DHT22;14613;46.308;25.288;2023-09-30T14:01:31;28.10;46.30
27072;DHT22;14613;46.308;25.288;2023-09-30T14:03:57;28.00;46.40
27072;DHT22;14613;46.308;25.288;2023-09-30T14:06:24;27.90;46.50
27072;DHT22;14613;46.308;25.288;2023-09-30T14:08:50;27.90;46.70
27072;DHT22;14613;46.308;25.288;2023-09-30T14:11:16;27.90;46.70
27072;DHT22;14613;46.308;25.288;2023-09-30T14:13:42;27.90;46.70
27072;DHT22;14613;46.308;25.288;2023-09-30T14:16:08;27.80;46.70
27072;DHT22;14613;46.308;25.288;2023-09-30T14:18:34;27.80;46.70
27072;DHT22;14613;46.308;25.288;2023-09-30T14:21:02;27.80;46.80
27072;DHT22;14613;46.308;25.288;2023-09-30T14:23:28;27.80;46.90
27072;DHT22;14613;46.308;25.288;2023-09-30T14:25:55;27.70;46.80
27072;DHT22;14613;46.308;25.288;2023-09-30T14:28:22;27.70;46.80
27072;DHT22;14613;46.308;25.288;2023-09-30T14:30:47;27.60;46.80
27072;DHT22;14613;46.308;25.288;2023-09-30T14:33:16;27.60;46.80
27072;DHT22;14613;46.308;25.288;2023-09-30T14:35:41;27.50;46.80
27072;DHT22;14613;46.308;25.288;2023-09-30T14:38:09;27.40;46.90
27072;DHT22;14613;46.308;25.288;2023-09-30T14:40:38;27.40;46.90
27072;DHT22;14613;46.308;25.288;2023-09-30T14:43:05;27.30;47.00
27072;DHT22;14613;46.308;25.288;2023-09-30T14:45:31;27.20;47.00
27072;DHT22;14613;46.308;25.288;2023-09-30T14:47:57;27.20;47.10
27072;DHT22;14613;46.308;25.288;2023-09-30T14:50:23;27.20;47.20
27072;DHT22;14613;46.308;25.288;2023-09-30T14:52:49;27.20;47.30
27072;DHT22;14613;46.308;25.288;2023-09-30T14:55:15;27.20;47.30
27072;DHT22;14613;46.308;25.288;2023-09-30T14:57:41;27.20;47.40
27072;DHT22;14613;46.308;25.288;2023-09-30T15:00:08;27.10;47.30
27072;DHT22;14613;46.308;25.288;2023-09-30T15:02:36;27.10;47.40
27072;DHT22;14613;46.308;25.288;2023-09-30T15:05:04;27.10;47.40
27072;DHT22;14613;46.308;25.288;2023-09-30T15:07:30;27.10;47.50
27072;DHT22;14613;46.308;25.288;2023-09-30T15:09:56;27.10;47.60
27072;DHT22;14613;46.308;25.288;2023-09-30T15:12:22;27.00;47.50
27072;DHT22;14613;46.308;25.288;2023-09-30T15:14:47;27.00;47.60
27072;DHT22;14613;46.308;25.288;2023-09-30T15:17:13;26.90;47.60
27072;DHT22;14613;46.308;25.288;2023-09-30T15:19:39;26.80;47.60
27072;DHT22;14613;46.308;25.288;2023-09-30T15:22:04;26.70;47.70
27072;DHT22;14613;46.308;25.288;2023-09-30T15:24:30;26.60;47.80
27072;DHT22;14613;46.308;25.288;2023-09-30T15:26:57;26.50;47.90
27072;DHT22;14613;46.308;25.288;2023-09-30T15:29:23;26.40;47.90
27072;DHT22;14613;46.308;25.288;2023-09-30T15:31:48;26.30;48.00
27072;DHT22;14613;46.308;25.288;2023-09-30T15:34:14;26.20;48.10
27072;DHT22;14613;46.308;25.288;2023-09-30T15:36:40;26.10;48.30
27072;DHT22;14613;46.308;25.288;2023-09-30T15:39:06;26.00;48.30